Time;durP1;ratioP1;P1;durP2;ratioP2;P2;SDS_P1;SDS_P2;PMS_P1;PMS_P2;Temp;Humidity;BMP_temperature;BMP_pressure;BME280_temperature;BME280_humidity;BME280_pressure;Samples;Min_cycle;Max_cycle;Signal;HPM_P1;HPM_P2
2021/11/07 00:05:48;;;;;;;;;35.00;31.75;;;;;10.09;64.62;102443.91;4974576;28;45449;-83
2021/11/07 00:08:28;;;;;;;;;39.25;33.00;;;;;10.11;64.51;102442.13;4972367;28;45294;-83
2021/11/07 00:11:00;;;;;;;;;33.75;31.50;;;;;10.12;64.54;102435.97;4963036;28;46172;-82
2021/11/07 00:13:27;;;;;;;;;36.50;32.75;;;;;10.18;64.35;102442.97;4963163;28;46268;-84
2021/11/07 00:15:55;;;;;;;;;36.00;32.50;;;;;10.21;64.35;102444.72;4974838;28;45250;-81
2021/11/07 00:18:24;;;;;;;;;31.25;30.00;;;;;10.24;64.17;102436.84;4970042;28;45460;-80
2021/11/07 00:21:25;;;;;;;;;39.00;34.25;;;;;10.26;64.06;102432.44;4968428;28;45396;-80
2021/11/07 00:26:26;;;;;;;;;33.25;31.50;;;;;10.31;64.06;102422.78;4975007;28;45148;-80
2021/11/07 00:29:10;;;;;;;;;33.50;29.75;;;;;10.30;64.25;102410.50;4962996;28;45173;-80
2021/11/07 00:36:59;;;;;;;;;36.25;31.00;;;;;10.37;64.30;102410.50;4972419;28;45347;-80
2021/11/07 00:40:10;;;;;;;;;31.50;27.75;;;;;10.39;64.06;102408.72;4962847;28;45437;-82
2021/11/07 00:42:25;;;;;;;;;33.25;29.75;;;;;10.43;64.07;102418.34;4954360;28;45858;-83
2021/11/07 00:47:49;;;;;;;;;29.00;28.00;;;;;10.46;64.00;102424.47;4954631;28;46030;-83
2021/11/07 00:50:17;;;;;;;;;28.75;27.00;;;;;10.49;63.81;102425.31;4982490;28;45267;-83
2021/11/07 00:53:16;;;;;;;;;33.00;26.50;;;;;10.50;63.82;102422.66;4981669;28;45342;-83
2021/11/07 00:55:39;;;;;;;;;25.25;22.25;;;;;10.51;63.98;102419.22;4979591;28;45235;-83
2021/11/07 01:03:02;;;;;;;;;31.00;28.75;;;;;10.60;64.32;102418.28;4962332;28;45252;-84
2021/11/07 01:05:31;;;;;;;;;31.25;28.25;;;;;10.62;63.98;102415.66;4968850;28;45382;-83
2021/11/07 01:07:57;;;;;;;;;29.50;22.75;;;;;10.64;63.62;102412.09;4963240;28;45280;-83
2021/11/07 01:10:24;;;;;;;;;28.25;25.50;;;;;10.66;63.67;102404.22;4981673;28;45475;-83
2021/11/07 01:12:50;;;;;;;;;29.75;24.50;;;;;10.69;63.69;102385.81;4981998;28;45336;-81
2021/11/07 01:15:16;;;;;;;;;30.75;27.00;;;;;10.70;63.85;102377.00;4975777;28;46310;-83
2021/11/07 01:17:42;;;;;;;;;27.50;26.00;;;;;10.73;63.94;102381.38;4962120;28;46221;-83
2021/11/07 01:20:09;;;;;;;;;28.25;24.75;;;;;10.77;63.94;102377.84;4969750;28;45310;-83
2021/11/07 01:25:16;;;;;;;;;30.00;27.00;;;;;10.82;63.82;102362.00;4968697;28;45982;-82
2021/11/07 01:27:43;;;;;;;;;27.00;25.75;;;;;10.82;63.89;102359.38;4971288;28;45402;-83
2021/11/07 01:30:19;;;;;;;;;30.00;25.50;;;;;10.84;63.98;102355.00;4962422;28;45436;-82
2021/11/07 01:32:50;;;;;;;;;25.50;23.75;;;;;10.82;64.07;102355.00;4961960;28;45349;-82
2021/11/07 01:35:20;;;;;;;;;26.25;23.50;;;;;10.81;64.06;102342.75;4966002;28;45589;-82
2021/11/07 01:40:21;;;;;;;;;26.25;25.50;;;;;10.87;64.03;102336.53;4976195;28;45291;-81
2021/11/07 01:42:57;;;;;;;;;25.00;23.50;;;;;10.86;64.05;102324.28;4981097;28;45483;-85
2021/11/07 01:45:30;;;;;;;;;26.25;26.25;;;;;10.87;63.91;102316.38;4977889;28;46302;-83
2021/11/07 01:48:20;;;;;;;;;27.00;24.75;;;;;10.88;64.03;102317.25;4981214;28;45705;-81
2021/11/07 01:50:53;;;;;;;;;26.00;24.25;;;;;10.91;64.01;102317.25;4981096;28;45381;-80
2021/11/07 01:53:25;;;;;;;;;25.50;21.50;;;;;10.89;63.83;102311.13;4972556;28;46053;-80
2021/11/07 01:55:52;;;;;;;;;24.50;22.00;;;;;10.91;63.80;102311.97;4979709;28;46308;-82
2021/11/07 01:58:19;;;;;;;;;21.75;20.50;;;;;10.92;63.95;102316.34;4980929;28;45282;-82
2021/11/07 02:00:45;;;;;;;;;22.75;20.50;;;;;10.92;64.03;102311.06;4963971;28;45213;-82
2021/11/07 02:03:12;;;;;;;;;25.00;24.25;;;;;10.93;64.59;102311.94;4961608;28;45570;-81
2021/11/07 02:05:38;;;;;;;;;30.50;24.75;;;;;10.94;64.22;102309.28;4969773;28;46366;-81
2021/11/07 02:08:06;;;;;;;;;25.75;22.00;;;;;10.98;64.24;102313.66;4980364;28;45458;-81
2021/11/07 02:10:32;;;;;;;;;28.75;25.25;;;;;10.98;64.33;102313.66;4981023;28;45207;-81
2021/11/07 02:12:58;;;;;;;;;30.00;23.75;;;;;11.03;64.23;102321.50;4980768;28;45484;-81
2021/11/07 02:15:23;;;;;;;;;23.25;22.25;;;;;11.03;64.70;102308.34;4974844;28;45211;-80
2021/11/07 02:17:49;;;;;;;;;23.25;21.75;;;;;11.02;64.15;102306.59;4961070;28;45463;-81
2021/11/07 02:20:29;;;;;;;;;24.50;24.25;;;;;11.08;64.34;102297.78;4961234;28;45614;-81
2021/11/07 02:22:54;;;;;;;;;24.00;21.50;;;;;11.10;64.42;102301.25;4960861;28;45405;-81
2021/11/07 02:25:20;;;;;;;;;21.75;18.75;;;;;11.08;64.36;102296.03;4967347;28;46281;-81
2021/11/07 02:27:46;;;;;;;;;21.50;21.50;;;;;11.10;64.57;102289.00;4968331;28;45299;-82
2021/11/07 02:30:14;;;;;;;;;23.25;19.75;;;;;11.14;64.46;102287.19;4961610;28;45422;-81
2021/11/07 02:32:40;;;;;;;;;22.50;21.25;;;;;11.13;64.45;102285.44;4970528;28;45474;-81
2021/11/07 02:35:06;;;;;;;;;27.75;23.75;;;;;11.15;64.44;102283.69;4978798;28;45417;-81
2021/11/07 02:37:32;;;;;;;;;16.25;14.75;;;;;11.19;64.60;102288.00;4974851;28;45486;-81
2021/11/07 02:39:57;;;;;;;;;17.75;16.00;;;;;11.18;64.52;102275.75;4961136;28;45424;-81
2021/11/07 02:42:23;;;;;;;;;15.25;13.75;;;;;11.18;64.74;102273.13;4966741;28;45408;-80
2021/11/07 02:44:48;;;;;;;;;20.50;18.00;;;;;11.21;64.85;102267.81;4980418;28;46189;-81
2021/11/07 02:47:17;;;;;;;;;17.25;16.00;;;;;11.21;64.99;102262.53;4980189;28;45349;-80
2021/11/07 02:49:43;;;;;;;;;17.50;16.25;;;;;11.23;64.91;102258.16;4980286;28;45544;-78
2021/11/07 02:52:13;;;;;;;;;18.50;14.00;;;;;11.28;65.05;102265.13;4978798;28;45480;-79
2021/11/07 02:54:39;;;;;;;;;13.50;13.25;;;;;11.26;65.26;102254.59;4978643;28;46234;-78
2021/11/07 02:57:07;;;;;;;;;18.00;17.50;;;;;11.28;65.24;102250.22;4977269;28;45741;-80
2021/11/07 02:59:37;;;;;;;;;16.75;15.00;;;;;11.30;65.33;102251.06;4980539;28;45481;-81
2021/11/07 03:02:05;;;;;;;;;16.75;13.75;;;;;11.34;65.25;102238.72;4978963;28;45349;-80
2021/11/07 03:04:32;;;;;;;;;16.00;14.00;;;;;11.35;65.46;102232.56;4979880;28;46441;-80
2021/11/07 03:06:58;;;;;;;;;18.50;14.25;;;;;11.37;65.75;102249.22;4978842;28;45284;-80
2021/11/07 03:09:27;;;;;;;;;16.75;15.75;;;;;11.39;65.79;102246.56;4980250;28;45525;-80
2021/11/07 03:11:54;;;;;;;;;16.00;15.75;;;;;11.39;65.96;102243.91;4978732;28;45368;-80
2021/11/07 03:14:26;;;;;;;;;16.25;14.00;;;;;11.39;65.85;102234.25;4966420;28;46111;-80
2021/11/07 03:16:53;;;;;;;;;18.75;15.50;;;;;11.42;65.91;102238.63;4960728;28;45241;-79
2021/11/07 03:19:21;;;;;;;;;14.50;14.25;;;;;11.46;66.08;102235.94;4960457;28;45435;-79
2021/11/07 03:21:48;;;;;;;;;15.00;13.25;;;;;11.46;66.05;102221.88;4976876;28;45448;-80
2021/11/07 03:24:15;;;;;;;;;15.75;13.50;;;;;11.52;66.05;102236.75;4979947;28;46464;-80
2021/11/07 03:26:40;;;;;;;;;17.25;16.25;;;;;11.53;65.93;102239.34;4972287;28;45499;-79
2021/11/07 03:29:08;;;;;;;;;19.50;16.00;;;;;11.53;66.22;102225.34;4978611;28;45365;-79
2021/11/07 03:34:12;;;;;;;;;14.00;13.00;;;;;11.54;65.82;102237.59;4960790;28;45362;-79
2021/11/07 03:36:49;;;;;;;;;18.25;15.50;;;;;11.52;66.49;102223.56;4960084;28;45168;-79
2021/11/07 03:39:17;;;;;;;;;17.50;16.50;;;;;11.54;66.19;102232.31;4960637;28;45560;-79
2021/11/07 03:41:43;;;;;;;;;18.25;16.25;;;;;11.55;66.56;102239.34;4973313;28;45427;-81
2021/11/07 03:44:10;;;;;;;;;21.00;17.00;;;;;11.53;66.47;102234.09;4979286;28;45408;-82
2021/11/07 03:46:39;;;;;;;;;18.25;15.50;;;;;11.54;66.47;102238.47;4962216;28;45267;-82
2021/11/07 03:49:05;;;;;;;;;18.00;17.00;;;;;11.54;67.02;102234.97;4979679;28;45230;-82
2021/11/07 03:51:32;;;;;;;;;19.25;17.50;;;;;11.54;66.74;102240.22;4977517;28;45424;-79
2021/11/07 03:54:00;;;;;;;;;16.00;13.25;;;;;11.56;66.91;102226.16;4973694;28;45413;-81
2021/11/07 03:56:26;;;;;;;;;17.00;16.75;;;;;11.57;66.97;102238.44;4964276;28;45644;-80
2021/11/07 03:58:52;;;;;;;;;17.75;16.00;;;;;11.59;67.01;102235.78;4979562;28;45274;-80
2021/11/07 04:01:18;;;;;;;;;17.50;16.25;;;;;11.59;67.36;102235.78;4978429;28;45456;-79
2021/11/07 04:03:44;;;;;;;;;16.75;15.75;;;;;11.60;66.86;102242.78;4979253;28;45404;-79
2021/11/07 04:06:09;;;;;;;;;19.25;17.50;;;;;11.62;66.93;102230.47;4960444;28;45216;-79
2021/11/07 04:08:34;;;;;;;;;17.75;16.50;;;;;11.61;67.08;102218.19;4960149;28;45267;-79
2021/11/07 04:11:00;;;;;;;;;16.00;15.00;;;;;11.60;67.26;102221.72;4966917;28;45395;-79
2021/11/07 04:13:26;;;;;;;;;18.25;17.25;;;;;11.57;67.27;102212.09;4969566;28;46095;-80
2021/11/07 04:15:51;;;;;;;;;17.75;17.50;;;;;11.59;67.29;102217.34;4959825;28;45267;-79
2021/11/07 04:18:16;;;;;;;;;14.75;13.00;;;;;11.58;67.39;102211.19;4962156;28;45298;-79
2021/11/07 04:20:42;;;;;;;;;23.50;16.25;;;;;11.58;67.26;102208.56;4949733;28;45532;-79
2021/11/07 04:23:07;;;;;;;;;16.50;16.50;;;;;11.61;67.16;102218.19;4982145;28;46168;-79
2021/11/07 04:25:33;;;;;;;;;21.50;18.50;;;;;11.60;67.27;102211.19;4980576;28;45331;-79
2021/11/07 04:27:59;;;;;;;;;17.25;16.25;;;;;11.57;67.68;102206.84;4972338;28;45437;-82
2021/11/07 04:30:25;;;;;;;;;18.00;16.75;;;;;11.58;67.68;102207.72;4964079;28;45715;-82
2021/11/07 04:32:50;;;;;;;;;20.50;18.50;;;;;11.60;67.37;102208.56;4981948;28;45905;-84
2021/11/07 04:35:16;;;;;;;;;23.25;19.00;;;;;11.58;67.77;102208.56;4964343;28;45238;-85
2021/11/07 04:37:43;;;;;;;;;20.00;18.50;;;;;11.61;67.58;102220.81;4982179;28;45227;-81
2021/11/07 04:40:11;;;;;;;;;17.75;16.75;;;;;11.59;67.51;102207.69;4981732;28;45230;-80
2021/11/07 04:42:37;;;;;;;;;17.75;15.00;;;;;11.58;67.76;102194.53;4962563;28;45361;-80
2021/11/07 04:45:03;;;;;;;;;21.00;17.50;;;;;11.59;67.84;102204.16;4970926;28;45330;-81
2021/11/07 04:47:29;;;;;;;;;20.00;16.50;;;;;11.61;67.73;102206.78;4967600;28;45449;-80
2021/11/07 04:49:54;;;;;;;;;20.50;18.50;;;;;11.57;67.76;102191.03;4962701;28;45418;-81
2021/11/07 04:52:21;;;;;;;;;22.50;19.50;;;;;11.59;67.79;102188.38;4976144;28;46401;-80
2021/11/07 04:54:47;;;;;;;;;19.75;17.00;;;;;11.61;67.77;102194.47;4970307;28;45212;-79
2021/11/07 04:57:12;;;;;;;;;23.75;19.75;;;;;11.59;67.99;102180.47;4970508;28;45271;-79
2021/11/07 04:59:38;;;;;;;;;21.50;17.75;;;;;11.62;68.04;102179.56;4981827;28;45385;-80
2021/11/07 05:02:04;;;;;;;;;17.50;17.00;;;;;11.61;68.09;102168.16;4979796;28;45317;-81
2021/11/07 05:04:30;;;;;;;;;19.50;18.00;;;;;11.61;67.97;102162.88;4981755;28;46513;-81
2021/11/07 05:06:56;;;;;;;;;20.00;17.50;;;;;11.62;68.15;102162.00;4963363;28;45268;-80
2021/11/07 05:09:22;;;;;;;;;22.00;18.00;;;;;11.64;67.96;102161.97;4962450;28;45306;-80
2021/11/07 05:11:48;;;;;;;;;17.50;17.25;;;;;11.62;67.92;102162.00;4974553;28;45436;-80
2021/11/07 05:14:15;;;;;;;;;19.75;18.00;;;;;11.64;68.06;102161.97;4981844;28;45451;-80
2021/11/07 05:16:40;;;;;;;;;19.00;16.50;;;;;11.63;68.02;102150.56;4966208;28;45495;-80
2021/11/07 05:19:06;;;;;;;;;16.50;16.00;;;;;11.65;68.22;102147.91;4979049;28;45460;-79
2021/11/07 05:21:31;;;;;;;;;16.25;15.50;;;;;11.64;68.35;102149.69;4980211;28;46121;-78
2021/11/07 05:23:56;;;;;;;;;19.50;18.00;;;;;11.65;67.93;102129.47;4956843;28;45489;-78
2021/11/07 05:26:22;;;;;;;;;15.75;13.50;;;;;11.65;67.84;102122.47;4969200;28;45185;-82
2021/11/07 05:28:47;;;;;;;;;17.75;13.00;;;;;11.64;68.17;102133.00;4975983;28;45300;-81
2021/11/07 05:31:13;;;;;;;;;16.50;14.75;;;;;11.63;68.07;102140.03;4980872;28;45285;-81
2021/11/07 05:33:39;;;;;;;;;16.75;15.75;;;;;11.62;67.88;102135.66;4981293;28;45278;-81
2021/11/07 05:36:04;;;;;;;;;15.50;15.50;;;;;11.64;68.29;102147.03;4981438;28;45235;-81
2021/11/07 05:38:30;;;;;;;;;19.00;17.25;;;;;11.64;68.23;102141.78;4981589;28;45253;-83
2021/11/07 05:40:55;;;;;;;;;19.00;17.25;;;;;11.65;68.28;102148.78;4975581;28;48216;-83
2021/11/07 05:43:23;;;;;;;;;18.75;15.50;;;;;11.66;68.12;102150.53;4981273;28;45423;-82
2021/11/07 05:45:49;;;;;;;;;16.25;16.25;;;;;11.67;67.99;102131.19;4981597;28;45532;-83
2021/11/07 05:48:15;;;;;;;;;17.00;16.25;;;;;11.69;68.29;102123.25;4981240;28;45433;-82
2021/11/07 05:50:41;;;;;;;;;17.50;16.75;;;;;11.70;68.06;102128.50;4967291;28;46269;-85
2021/11/07 05:53:07;;;;;;;;;18.00;16.75;;;;;11.72;68.12;102130.25;4961564;28;45240;-84
2021/11/07 05:55:32;;;;;;;;;15.50;15.50;;;;;11.72;68.15;102131.13;4961916;28;45228;-84
2021/11/07 05:57:59;;;;;;;;;17.75;15.75;;;;;11.74;68.17;102125.81;4966137;28;45606;-83
2021/11/07 06:00:25;;;;;;;;;20.25;18.50;;;;;11.74;67.96;102126.69;4962978;28;47151;-83
2021/11/07 06:02:51;;;;;;;;;18.00;16.75;;;;;11.74;68.20;102124.06;4963944;28;45453;-84
2021/11/07 06:05:18;;;;;;;;;14.25;14.25;;;;;11.77;68.30;102131.06;4980187;28;45452;-84
2021/11/07 06:07:43;;;;;;;;;17.50;17.00;;;;;11.74;68.17;102139.00;4980078;28;45346;-84
2021/11/07 06:10:09;;;;;;;;;16.75;16.00;;;;;11.75;68.22;102140.75;4980820;28;45361;-84
2021/11/07 06:12:35;;;;;;;;;18.50;16.00;;;;;11.75;68.34;102138.13;4979527;28;45508;-83
2021/11/07 06:15:00;;;;;;;;;16.25;15.25;;;;;11.76;68.48;102142.47;4964952;28;45408;-83
2021/11/07 06:17:26;;;;;;;;;18.75;17.00;;;;;11.80;68.34;102138.91;4961547;28;45303;-83
2021/11/07 06:19:51;;;;;;;;;17.50;17.25;;;;;11.80;68.09;102142.41;4979833;28;45392;-82
2021/11/07 06:22:17;;;;;;;;;16.25;16.25;;;;;11.82;68.16;102142.41;4980492;28;45243;-82
2021/11/07 06:24:43;;;;;;;;;18.00;18.00;;;;;11.84;68.23;102145.00;4979951;28;45227;-82
2021/11/07 06:27:08;;;;;;;;;18.50;16.50;;;;;11.81;68.29;102149.41;4976805;28;45248;-82
2021/11/07 06:29:34;;;;;;;;;20.50;16.50;;;;;11.81;68.19;102151.19;4961575;28;46246;-82
2021/11/07 06:32:00;;;;;;;;;18.00;17.00;;;;;11.84;68.24;102145.88;4961423;28;45791;-83
2021/11/07 06:34:27;;;;;;;;;18.00;17.00;;;;;11.82;67.94;102142.41;4960936;28;45565;-84
2021/11/07 06:36:53;;;;;;;;;19.75;18.00;;;;;11.84;68.17;102145.88;4978590;28;45345;-84
2021/11/07 06:39:20;;;;;;;;;22.50;20.00;;;;;11.85;68.32;102147.63;4958668;28;47657;-83
2021/11/07 06:41:46;;;;;;;;;21.00;19.00;;;;;11.84;68.20;102143.22;4980241;28;45555;-83
2021/11/07 06:44:12;;;;;;;;;16.75;16.00;;;;;11.84;68.16;102130.06;4980656;28;45230;-83
2021/11/07 06:46:38;;;;;;;;;18.50;17.00;;;;;11.84;68.37;102131.81;4979285;28;45552;-83
2021/11/07 06:49:06;;;;;;;;;18.75;18.00;;;;;11.84;68.22;102130.06;4980211;28;45270;-84
2021/11/07 06:51:31;;;;;;;;;26.25;24.00;;;;;11.85;68.24;102126.56;4979728;28;45570;-81
2021/11/07 06:53:57;;;;;;;;;18.00;17.75;;;;;11.87;68.21;102130.03;4979551;28;45672;-78
2021/11/07 06:56:23;;;;;;;;;21.50;18.75;;;;;11.87;68.39;102119.47;4980069;28;45357;-78
2021/11/07 06:58:48;;;;;;;;;21.25;18.00;;;;;11.88;68.39;102128.22;4951902;28;47263;-78
2021/11/07 07:01:14;;;;;;;;;20.00;18.00;;;;;11.89;68.46;102128.22;4960868;28;45340;-80
2021/11/07 07:03:39;;;;;;;;;21.00;19.75;;;;;11.89;68.47;102119.44;4975216;28;45485;-85
2021/11/07 07:06:05;;;;;;;;;21.00;20.00;;;;;11.90;68.18;102113.28;4962141;28;46974;-82
2021/11/07 07:08:42;;;;;;;;;19.00;18.00;;;;;11.91;68.72;102121.16;4980163;28;46100;-82
2021/11/07 07:11:12;;;;;;;;;22.50;19.75;;;;;11.91;68.25;102105.34;4980127;28;45692;-82
2021/11/07 07:13:56;;;;;;;;;17.25;15.00;;;;;11.91;68.71;102105.34;4974875;28;45744;-82
2021/11/07 07:19:01;;;;;;;;;21.50;18.75;;;;;11.94;68.42;102112.34;4960415;28;46142;-81
2021/11/07 07:24:24;;;;;;;;;19.75;17.50;;;;;11.92;68.73;102114.13;4977332;28;45625;-78
2021/11/07 07:34:40;;;;;;;;;14.50;14.50;;;;;11.95;69.10;102121.97;4965747;28;45460;-78
2021/11/07 07:37:06;;;;;;;;;20.50;20.50;;;;;11.93;68.90;102114.09;4979493;28;45858;-80
2021/11/07 07:39:31;;;;;;;;;21.75;19.00;;;;;11.97;69.41;102124.59;4979688;28;45243;-81
2021/11/07 07:41:56;;;;;;;;;22.00;18.50;;;;;11.96;69.22;102133.38;4966494;28;45225;-78
2021/11/07 07:44:22;;;;;;;;;24.25;20.75;;;;;11.97;69.19;102125.47;4965188;28;45215;-80
2021/11/07 07:46:47;;;;;;;;;23.25;21.50;;;;;11.97;68.99;102119.31;4979556;28;45592;-79
2021/11/07 07:49:16;;;;;;;;;19.50;17.00;;;;;11.97;69.36;102122.84;4979371;28;46660;-82
2021/11/07 07:51:42;;;;;;;;;19.00;18.75;;;;;11.99;69.17;102126.31;4977579;28;45447;-82
2021/11/07 07:54:07;;;;;;;;;20.75;17.75;;;;;11.98;69.30;102126.31;4962998;28;45342;-81
2021/11/07 07:56:35;;;;;;;;;23.75;17.25;;;;;11.99;69.54;102138.63;4973708;28;45438;-81
2021/11/07 07:59:01;;;;;;;;;20.00;18.00;;;;;12.02;69.34;102131.53;4983236;28;45489;-78
2021/11/07 08:01:27;;;;;;;;;19.75;19.50;;;;;12.00;69.42;102124.56;4981313;28;45710;-76
2021/11/07 08:03:53;;;;;;;;;23.25;19.75;;;;;12.02;69.61;102118.38;4982928;28;45396;-76
2021/11/07 08:06:19;;;;;;;;;23.25;20.50;;;;;12.03;69.47;102116.56;4982616;28;45318;-76
2021/11/07 08:08:44;;;;;;;;;17.75;17.75;;;;;12.05;69.36;102117.41;4981031;28;45366;-76
2021/11/07 08:11:10;;;;;;;;;21.75;18.75;;;;;12.06;69.45;102119.16;4982932;28;45211;-76
2021/11/07 08:13:35;;;;;;;;;21.25;18.75;;;;;12.10;69.32;102126.13;4982861;28;45525;-76
2021/11/07 08:16:01;;;;;;;;;20.00;18.75;;;;;12.10;69.34;102115.56;4982788;28;45413;-76
2021/11/07 08:18:26;;;;;;;;;22.00;20.75;;;;;12.12;69.39;102113.78;4981694;28;46696;-76
2021/11/07 08:20:52;;;;;;;;;21.00;19.00;;;;;12.17;69.45;102118.16;4967024;28;45372;-77
2021/11/07 08:23:21;;;;;;;;;19.50;16.25;;;;;12.20;69.40;102128.66;4963342;28;45439;-76
2021/11/07 08:25:48;;;;;;;;;17.75;17.00;;;;;12.18;69.21;102127.78;4966721;28;45477;-77
2021/11/07 08:28:18;;;;;;;;;20.25;18.50;;;;;12.21;69.45;102133.00;4978818;28;45251;-77
2021/11/07 08:30:44;;;;;;;;;20.50;17.00;;;;;12.22;69.38;102121.56;4982218;28;45806;-77
2021/11/07 08:33:10;;;;;;;;;18.50;17.25;;;;;12.23;69.43;102118.91;4963360;28;45336;-77
2021/11/07 08:35:40;;;;;;;;;21.50;18.25;;;;;12.27;69.39;102114.47;4962887;28;45422;-79
2021/11/07 08:38:11;;;;;;;;;19.25;15.00;;;;;12.27;69.35;102112.66;4970065;28;45313;-82
2021/11/07 09:07:52;;;;;;;;;19.00;19.00;;;;;12.70;69.54;102083.75;4971714;28;45390;-80
2021/11/07 09:10:19;;;;;;;;;19.25;18.00;;;;;12.73;69.56;102077.53;4981890;28;45404;-80
2021/11/07 09:12:46;;;;;;;;;22.00;20.00;;;;;12.80;69.42;102080.91;4952374;28;45335;-80
2021/11/07 09:15:18;;;;;;;;;19.00;16.75;;;;;12.82;69.79;102074.69;4962118;28;45529;-80
2021/11/07 09:17:45;;;;;;;;;19.50;18.25;;;;;12.86;69.77;102082.56;4965188;28;45324;-80
2021/11/07 09:20:17;;;;;;;;;17.00;15.25;;;;;12.88;69.65;102086.03;4981777;28;45369;-80
2021/11/07 09:22:56;;;;;;;;;19.00;18.75;;;;;12.88;69.42;102081.63;4963863;28;45791;-80
2021/11/07 09:25:28;;;;;;;;;19.00;18.50;;;;;12.88;69.41;102081.63;4965968;28;45546;-80
2021/11/07 09:28:40;;;;;;;;;16.75;14.00;;;;;12.89;69.63;102087.78;4966594;28;45517;-80
2021/11/07 09:33:26;;;;;;;;;23.50;19.25;;;;;12.89;70.31;102074.59;4961888;28;45767;-80
2021/11/07 09:38:30;;;;;;;;;17.00;16.25;;;;;12.94;69.93;102085.88;4967754;28;45600;-80
2021/11/07 09:43:52;;;;;;;;;19.00;17.00;;;;;12.97;69.78;102079.69;4981247;28;45464;-79
2021/11/07 09:46:34;;;;;;;;;16.75;15.75;;;;;13.01;69.90;102076.94;4981560;28;45408;-79
2021/11/07 09:49:21;;;;;;;;;18.50;17.25;;;;;13.04;69.89;102086.56;4977955;28;45612;-79
2021/11/07 09:51:55;;;;;;;;;15.75;13.25;;;;;13.10;70.12;102082.94;4981047;28;46637;-79
2021/11/07 09:54:21;;;;;;;;;18.75;16.50;;;;;13.14;70.11;102081.94;4973394;28;45159;-79
2021/11/07 09:56:52;;;;;;;;;15.00;15.00;;;;;13.17;69.86;102079.25;4961797;28;45362;-79
2021/11/07 09:59:18;;;;;;;;;15.25;14.50;;;;;13.21;69.79;102107.31;4968645;28;45257;-80
2021/11/07 10:01:45;;;;;;;;;14.25;13.25;;;;;13.24;70.12;102107.25;4969118;28;46379;-79
2021/11/07 10:04:13;;;;;;;;;17.00;14.50;;;;;13.26;69.85;102105.44;4961371;28;45411;-79
2021/11/07 10:06:47;;;;;;;;;12.75;12.75;;;;;13.28;70.15;102089.56;4968715;28;45336;-79
2021/11/07 10:09:26;;;;;;;;;15.00;14.00;;;;;13.32;70.04;102088.59;4981056;28;45440;-79
2021/11/07 10:12:09;;;;;;;;;14.00;14.00;;;;;13.38;70.24;102087.59;4975333;28;46295;-79
2021/11/07 10:14:59;;;;;;;;;14.50;13.50;;;;;13.47;70.21;102095.28;4980318;28;45368;-79
2021/11/07 10:17:59;;;;;;;;;19.25;17.25;;;;;13.56;70.73;102098.59;4975446;28;45168;-79
2021/11/07 10:20:38;;;;;;;;;20.25;17.50;;;;;13.66;70.07;102094.88;4979821;28;45422;-79
2021/11/07 10:23:20;;;;;;;;;18.75;17.75;;;;;13.73;69.92;102096.47;4980714;28;46398;-79
2021/11/07 10:25:56;;;;;;;;;14.00;14.00;;;;;13.83;69.40;102109.44;4976068;28;45243;-81
2021/11/07 10:28:29;;;;;;;;;16.75;16.75;;;;;13.86;69.50;102101.44;4966659;28;45281;-80
2021/11/07 10:31:34;;;;;;;;;12.75;12.75;;;;;13.92;69.45;102090.72;4974014;28;46897;-79
2021/11/07 10:53:00;;;;;;;;;8.50;7.00;;;;;14.24;69.35;102098.72;4934572;28;45404;-79
2021/11/07 10:55:29;;;;;;;;;7.00;5.50;;;;;14.27;69.18;102122.44;4968730;28;46267;-80
2021/11/07 10:57:58;;;;;;;;;8.25;6.50;;;;;14.32;68.87;102113.53;4976381;28;45653;-80
2021/11/07 11:00:29;;;;;;;;;9.50;6.00;;;;;14.38;68.65;102108.94;4980245;28;45286;-80
2021/11/07 11:03:16;;;;;;;;;7.50;7.50;;;;;14.43;67.92;102100.00;4977737;28;45342;-80
2021/11/07 11:08:31;;;;;;;;;3.50;3.50;;;;;14.46;67.52;102094.63;4974848;28;45405;-79
2021/11/07 11:14:11;;;;;;;;;7.25;7.00;;;;;14.55;67.37;102091.72;4980041;28;45448;-79
2021/11/07 11:32:21;;;;;;;;;5.25;5.00;;;;;14.80;65.10;102067.19;4983266;28;46483;-80
2021/11/07 11:35:12;;;;;;;;;9.00;4.75;;;;;14.81;65.41;102068.06;4983396;28;45231;-81
2021/11/07 11:37:43;;;;;;;;;4.75;3.75;;;;;14.78;65.21;102053.16;4981996;28;45384;-80
2021/11/07 11:43:00;;;;;;;;;6.00;5.00;;;;;14.77;65.08;102051.41;4983378;28;45263;-80
2021/11/07 11:45:31;;;;;;;;;7.50;3.75;;;;;14.78;65.05;102054.91;4982422;28;45443;-79
2021/11/07 12:00:45;;;;;;;;;7.75;6.75;;;;;14.74;64.07;102049.69;4981629;28;45677;-80
2021/11/07 12:03:32;;;;;;;;;5.00;4.50;;;;;14.73;63.76;102055.06;4982876;28;45437;-80
2021/11/07 12:06:09;;;;;;;;;9.75;6.50;;;;;14.70;63.64;102056.00;4963216;28;45435;-80
2021/11/07 12:11:58;;;;;;;;;8.00;6.50;;;;;14.72;63.33;102064.75;4884352;29;45636;-81
2021/11/07 12:14:38;;;;;;;;;8.75;7.00;;;;;14.74;62.86;102060.28;4884295;29;45320;-81
2021/11/07 12:17:08;;;;;;;;;8.50;3.75;;;;;14.73;62.76;102061.22;4931794;28;45621;-81
2021/11/07 12:19:38;;;;;;;;;6.00;4.00;;;;;14.79;62.71;102054.84;4982339;28;45414;-81
2021/11/07 12:22:08;;;;;;;;;4.00;4.00;;;;;14.79;61.68;102054.84;4964430;28;45651;-81
2021/11/07 12:24:38;;;;;;;;;7.75;6.50;;;;;14.79;61.58;102054.84;4982891;28;45251;-81
2021/11/07 12:27:28;;;;;;;;;9.25;7.50;;;;;14.74;61.89;102044.41;4977774;28;45639;-81
2021/11/07 12:30:15;;;;;;;;;9.50;7.50;;;;;14.75;61.71;102042.63;4925302;28;46158;-79
2021/11/07 12:32:44;;;;;;;;;8.25;5.75;;;;;14.79;62.18;102038.97;4982174;28;45518;-79
2021/11/07 12:35:25;;;;;;;;;8.25;8.25;;;;;14.84;61.62;102046.81;4981035;28;45449;-81
2021/11/07 12:40:48;;;;;;;;;7.00;5.25;;;;;14.89;60.98;102044.06;4979036;28;45302;-77
2021/11/07 12:43:34;;;;;;;;;11.00;5.25;;;;;14.90;60.77;102053.72;4981969;28;46035;-78
2021/11/07 12:46:54;;;;;;;;;4.75;4.00;;;;;14.91;61.02;102047.50;4961906;28;45491;-77
2021/11/07 12:49:24;;;;;;;;;11.50;9.00;;;;;14.89;60.51;102052.00;4970392;28;45529;-78
2021/11/07 12:51:56;;;;;;;;;9.75;7.00;;;;;14.87;60.67;102052.03;4979135;28;45407;-77
2021/11/07 12:54:24;;;;;;;;;8.00;4.75;;;;;14.84;60.03;102039.72;4980872;28;45469;-77
2021/11/07 12:56:51;;;;;;;;;10.25;7.50;;;;;14.84;60.08;102033.56;4982155;28;45468;-77
2021/11/07 12:59:22;;;;;;;;;6.25;4.00;;;;;14.84;59.38;102033.56;4981153;28;45436;-77
2021/11/07 13:02:11;;;;;;;;;13.25;6.50;;;;;14.82;59.20;102036.25;4980598;28;46081;-77
2021/11/07 13:04:41;;;;;;;;;8.50;6.50;;;;;14.81;59.19;102042.47;4973719;28;45339;-77
2021/11/07 13:07:07;;;;;;;;;11.00;7.75;;;;;14.79;58.97;102044.28;4981700;28;45392;-77
2021/11/07 13:09:41;;;;;;;;;4.75;4.75;;;;;14.78;59.09;102045.19;4981051;28;45512;-78
2021/11/07 13:12:19;;;;;;;;;10.50;5.75;;;;;14.83;58.47;102047.72;4981769;28;46330;-78
2021/11/07 13:15:07;;;;;;;;;5.75;4.00;;;;;14.81;59.04;102050.41;4981876;28;45788;-77
2021/11/07 13:18:18;;;;;;;;;9.25;3.50;;;;;14.86;58.91;102045.00;4980389;28;45282;-78
2021/11/07 13:25:57;;;;;;;;;7.50;4.25;;;;;14.93;58.46;102029.78;4980255;28;45241;-79
2021/11/07 13:31:22;;;;;;;;;5.00;5.00;;;;;15.02;58.51;102034.81;4980013;28;45335;-78
2021/11/07 13:33:49;;;;;;;;;5.75;4.75;;;;;15.05;57.79;102031.19;4952772;28;45562;-78
2021/11/07 13:36:17;;;;;;;;;5.75;3.75;;;;;15.07;57.81;102026.72;4968427;28;45503;-78
2021/11/07 13:38:47;;;;;;;;;4.00;3.00;;;;;15.10;57.99;102037.22;4979982;28;46084;-78
2021/11/07 13:41:16;;;;;;;;;7.25;4.25;;;;;15.05;56.01;102024.13;4981254;28;45269;-78
2021/11/07 13:43:54;;;;;;;;;4.00;3.00;;;;;15.05;57.30;102029.41;4981424;28;45650;-75
2021/11/07 13:46:19;;;;;;;;;7.50;4.50;;;;;15.06;57.54;102031.13;4980529;28;45794;-76
2021/11/07 13:49:02;;;;;;;;;6.25;4.00;;;;;15.07;57.74;102027.59;4963460;28;45171;-76
2021/11/07 13:51:31;;;;;;;;;4.25;3.50;;;;;15.03;57.78;102014.50;4943464;28;46033;-76